Time;durP1;ratioP1;P1;durP2;ratioP2;P2;SDS_P1;SDS_P2;PMS_P1;PMS_P2;Temp;Humidity;BMP_temperature;BMP_pressure;BME280_temperature;BME280_humidity;BME280_pressure;Samples;Min_cycle;Max_cycle;Signal;HPM_P1;HPM_P2
2021/06/03 00:00:50;;;;;;;6.78;5.85;;;;;;;;;;1460459;40;20656;-84
2021/06/03 00:01:53;;;;;;;9.88;6.50;;;;;;;;;;1466687;40;20420;-81
2021/06/03 00:02:56;;;;;;;8.38;6.30;;;;;;;;;;1462248;40;20588;-82
2021/06/03 00:03:58;;;;;;;7.55;6.32;;;;;;;;;;1462364;40;20401;-82
2021/06/03 00:05:00;;;;;;;6.22;5.50;;;;;;;;;;1457941;40;20907;-81
2021/06/03 00:06:09;;;;;;;6.18;5.75;;;;;;;;;;1459178;40;20763;-80
2021/06/03 00:07:12;;;;;;;5.78;5.28;;;;;;;;;;1458164;40;20793;-82
2021/06/03 00:08:15;;;;;;;5.15;4.70;;;;;;;;;;1459843;40;20906;-81
2021/06/03 00:09:17;;;;;;;5.50;4.72;;;;;;;;;;1458161;40;20462;-83
2021/06/03 00:10:25;;;;;;;9.65;5.55;;;;;;;;;;1457630;40;20450;-81
2021/06/03 00:11:26;;;;;;;6.50;4.40;;;;;;;;;;1466681;40;20610;-81
2021/06/03 00:12:28;;;;;;;6.57;3.90;;;;;;;;;;1463603;40;20857;-82
2021/06/03 00:13:31;;;;;;;6.03;3.88;;;;;;;;;;1462578;40;20716;-82
2021/06/03 00:14:33;;;;;;;5.95;4.22;;;;;;;;;;1465263;40;20782;-82
2021/06/03 00:15:35;;;;;;;3.55;3.20;;;;;;;;;;1460076;40;20421;-82
2021/06/03 00:16:37;;;;;;;4.75;4.15;;;;;;;;;;1458569;40;20501;-80
2021/06/03 00:17:39;;;;;;;5.43;3.97;;;;;;;;;;1462214;40;20405;-84
2021/06/03 00:18:42;;;;;;;3.20;3.00;;;;;;;;;;1461991;40;20424;-83
2021/06/03 00:19:44;;;;;;;3.47;3.05;;;;;;;;;;1458094;40;20455;-82
2021/06/03 00:20:46;;;;;;;6.10;3.00;;;;;;;;;;1462800;40;20408;-83
2021/06/03 00:21:48;;;;;;;6.32;3.10;;;;;;;;;;1462099;40;20457;-83
2021/06/03 00:22:50;;;;;;;6.68;3.15;;;;;;;;;;1462321;40;20405;-82
2021/06/03 00:23:52;;;;;;;5.80;3.10;;;;;;;;;;1466174;40;20529;-83
2021/06/03 00:24:54;;;;;;;4.05;3.00;;;;;;;;;;1466494;40;20525;-81
2021/06/03 00:25:55;;;;;;;3.50;3.25;;;;;;;;;;1466360;40;20505;-81
2021/06/03 00:26:57;;;;;;;3.70;3.28;;;;;;;;;;1466487;40;20415;-82
2021/06/03 00:27:59;;;;;;;3.90;3.00;;;;;;;;;;1466073;40;20410;-81
2021/06/03 00:29:01;;;;;;;4.10;3.28;;;;;;;;;;1462137;40;20478;-81
2021/06/03 00:30:08;;;;;;;3.40;3.10;;;;;;;;;;1461175;40;20528;-79
2021/06/03 00:31:09;;;;;;;4.10;3.25;;;;;;;;;;1461358;40;20433;-81
2021/06/03 00:32:11;;;;;;;4.53;2.95;;;;;;;;;;1461583;40;20477;-83
2021/06/03 00:33:14;;;;;;;4.65;3.22;;;;;;;;;;1463046;40;20444;-81
2021/06/03 00:34:15;;;;;;;2.60;2.40;;;;;;;;;;1462402;40;20409;-83
2021/06/03 00:35:19;;;;;;;3.40;3.10;;;;;;;;;;1457732;40;20496;-81
2021/06/03 00:36:21;;;;;;;3.17;2.97;;;;;;;;;;1457261;40;20466;-81
2021/06/03 00:37:22;;;;;;;2.90;2.70;;;;;;;;;;1465574;40;20474;-83
2021/06/03 00:38:24;;;;;;;4.90;3.22;;;;;;;;;;1466445;40;20453;-85
2021/06/03 00:39:26;;;;;;;4.25;3.30;;;;;;;;;;1466400;40;20699;-83
2021/06/03 00:40:29;;;;;;;5.40;3.55;;;;;;;;;;1466410;40;20500;-84
2021/06/03 00:41:31;;;;;;;6.47;3.30;;;;;;;;;;1470400;40;20529;-84
2021/06/03 00:42:32;;;;;;;4.85;3.20;;;;;;;;;;1472567;40;20778;-84
2021/06/03 00:43:35;;;;;;;4.20;3.10;;;;;;;;;;1468386;40;20807;-83
2021/06/03 00:44:36;;;;;;;4.03;3.17;;;;;;;;;;1465591;40;20566;-82
2021/06/03 00:45:40;;;;;;;7.40;3.67;;;;;;;;;;1465278;40;20422;-82
2021/06/03 00:46:42;;;;;;;8.27;3.88;;;;;;;;;;1461533;40;20445;-82
2021/06/03 00:47:44;;;;;;;5.43;3.40;;;;;;;;;;1458458;40;20438;-82
2021/06/03 00:48:46;;;;;;;4.57;3.58;;;;;;;;;;1458751;40;20422;-81
2021/06/03 00:49:48;;;;;;;4.13;3.70;;;;;;;;;;1462210;40;20527;-81
2021/06/03 00:50:52;;;;;;;3.58;3.30;;;;;;;;;;1466525;40;20505;-83
2021/06/03 00:51:55;;;;;;;3.78;3.45;;;;;;;;;;1466151;40;20757;-82
2021/06/03 00:52:57;;;;;;;7.07;3.72;;;;;;;;;;1466727;40;20447;-82
2021/06/03 00:53:59;;;;;;;5.78;3.60;;;;;;;;;;1461916;40;20785;-82
2021/06/03 00:55:00;;;;;;;3.95;3.55;;;;;;;;;;1462354;40;20511;-80
2021/06/03 00:56:04;;;;;;;5.00;3.28;;;;;;;;;;1466115;40;20920;-79
2021/06/03 00:57:06;;;;;;;5.65;3.28;;;;;;;;;;1462443;40;20533;-83
2021/06/03 00:58:08;;;;;;;5.38;3.22;;;;;;;;;;1461685;40;20469;-82
2021/06/03 00:59:09;;;;;;;8.23;3.83;;;;;;;;;;1469235;40;20459;-82
2021/06/03 01:00:14;;;;;;;4.57;3.22;;;;;;;;;;1468169;40;20561;-81
2021/06/03 01:01:16;;;;;;;6.90;3.22;;;;;;;;;;1471171;40;20420;-80
2021/06/03 01:02:17;;;;;;;3.28;2.95;;;;;;;;;;1471487;40;20746;-80
2021/06/03 01:03:20;;;;;;;4.05;3.00;;;;;;;;;;1467741;40;20421;-79
2021/06/03 01:04:21;;;;;;;3.00;2.80;;;;;;;;;;1463901;40;20551;-82
2021/06/03 01:05:26;;;;;;;3.63;2.97;;;;;;;;;;1467664;40;20531;-80
2021/06/03 01:06:27;;;;;;;4.07;2.97;;;;;;;;;;1471439;40;20400;-81
2021/06/03 01:07:29;;;;;;;3.70;3.35;;;;;;;;;;1467476;40;20525;-81
2021/06/03 01:09:02;;;;;;;2.83;2.47;;;;;;;;;;1460448;40;20427;-81
2021/06/03 01:10:14;;;;;;;4.40;3.15;;;;;;;;;;1460119;40;20461;-79
2021/06/03 01:11:22;;;;;;;4.93;2.95;;;;;;;;;;1463120;40;20418;-83
2021/06/03 01:12:45;;;;;;;3.53;3.05;;;;;;;;;;1461662;40;20485;-82
2021/06/03 01:13:57;;;;;;;3.65;2.97;;;;;;;;;;1464174;40;20817;-82
2021/06/03 01:15:05;;;;;;;3.10;2.90;;;;;;;;;;1459585;40;20792;-82
2021/06/03 01:16:07;;;;;;;3.95;3.25;;;;;;;;;;1458477;40;20403;-83
2021/06/03 01:17:10;;;;;;;3.85;3.00;;;;;;;;;;1461213;40;20480;-82
2021/06/03 01:18:13;;;;;;;5.78;2.97;;;;;;;;;;1457885;40;20857;-82
2021/06/03 01:19:33;;;;;;;5.00;3.58;;;;;;;;;;1458212;40;20450;-81
2021/06/03 01:20:35;;;;;;;4.80;3.30;;;;;;;;;;1464937;40;20421;-81
2021/06/03 01:21:45;;;;;;;5.80;2.87;;;;;;;;;;1461745;40;20501;-82
2021/06/03 01:22:49;;;;;;;3.65;2.90;;;;;;;;;;1461852;40;20429;-83
2021/06/03 01:24:32;;;;;;;3.90;3.08;;;;;;;;;;1465921;40;20418;-82
2021/06/03 01:25:34;;;;;;;6.63;3.00;;;;;;;;;;1462533;40;20886;-84
2021/06/03 01:26:36;;;;;;;3.92;3.30;;;;;;;;;;1466623;40;20486;-84
2021/06/03 01:27:39;;;;;;;5.65;3.05;;;;;;;;;;1461646;40;20408;-83
2021/06/03 01:28:41;;;;;;;3.45;2.97;;;;;;;;;;1458179;40;20418;-83
2021/06/03 01:29:55;;;;;;;3.63;3.22;;;;;;;;;;1459254;40;21028;-84
2021/06/03 01:30:58;;;;;;;4.13;3.15;;;;;;;;;;1459203;40;20419;-83
2021/06/03 01:31:59;;;;;;;3.63;3.13;;;;;;;;;;1462172;40;20462;-83
2021/06/03 01:33:05;;;;;;;3.47;3.17;;;;;;;;;;1462236;40;20425;-82
2021/06/03 01:34:09;;;;;;;7.85;4.30;;;;;;;;;;1465891;40;20510;-84
2021/06/03 01:35:17;;;;;;;3.40;3.08;;;;;;;;;;1461369;40;20429;-83
2021/06/03 01:36:20;;;;;;;4.50;4.10;;;;;;;;;;1462651;40;20905;-83
2021/06/03 01:37:22;;;;;;;3.30;2.72;;;;;;;;;;1467214;40;20496;-84
2021/06/03 01:38:28;;;;;;;5.10;2.60;;;;;;;;;;1470836;40;20462;-85
2021/06/03 01:39:31;;;;;;;4.47;3.25;;;;;;;;;;1462473;40;20416;-84
2021/06/03 01:40:36;;;;;;;3.30;3.05;;;;;;;;;;1461731;40;20910;-83
2021/06/03 01:41:38;;;;;;;7.15;3.47;;;;;;;;;;1466053;40;20419;-82
2021/06/03 01:42:40;;;;;;;3.60;3.30;;;;;;;;;;1465795;40;20526;-83
2021/06/03 01:43:45;;;;;;;5.10;3.42;;;;;;;;;;1466557;40;20497;-83
2021/06/03 01:44:47;;;;;;;4.72;3.63;;;;;;;;;;1464887;40;20451;-82
2021/06/03 01:45:50;;;;;;;4.07;3.58;;;;;;;;;;1457510;40;20410;-84
2021/06/03 01:46:53;;;;;;;5.30;3.70;;;;;;;;;;1459561;40;20538;-84
2021/06/03 01:47:56;;;;;;;4.97;3.50;;;;;;;;;;1461839;40;20543;-84
2021/06/03 01:48:58;;;;;;;3.88;3.15;;;;;;;;;;1462015;40;20421;-84
2021/06/03 01:50:02;;;;;;;5.60;3.80;;;;;;;;;;1466074;40;20466;-82
2021/06/03 01:51:08;;;;;;;4.55;3.75;;;;;;;;;;1461723;40;20421;-82
2021/06/03 01:52:10;;;;;;;3.88;3.55;;;;;;;;;;1458298;40;20919;-84
2021/06/03 01:53:12;;;;;;;4.35;3.97;;;;;;;;;;1462182;40;20429;-84
2021/06/03 01:54:14;;;;;;;4.32;3.85;;;;;;;;;;1468218;40;20499;-83
2021/06/03 01:55:16;;;;;;;4.47;4.13;;;;;;;;;;1465015;40;20427;-85
2021/06/03 01:56:17;;;;;;;4.18;3.78;;;;;;;;;;1461105;40;20508;-83
2021/06/03 01:57:20;;;;;;;5.05;3.72;;;;;;;;;;1462481;40;20461;-83
2021/06/03 01:58:22;;;;;;;4.57;3.85;;;;;;;;;;1462077;40;20547;-84
2021/06/03 01:59:24;;;;;;;3.97;3.58;;;;;;;;;;1461894;40;20491;-83
2021/06/03 02:00:27;;;;;;;4.85;3.92;;;;;;;;;;1459014;40;20677;-84
2021/06/03 02:01:30;;;;;;;5.82;3.75;;;;;;;;;;1461583;40;20426;-82
2021/06/03 02:02:32;;;;;;;5.17;4.30;;;;;;;;;;1458667;40;20412;-81
2021/06/03 02:03:34;;;;;;;4.15;3.63;;;;;;;;;;1463537;40;20434;-80
2021/06/03 02:04:36;;;;;;;7.68;5.20;;;;;;;;;;1471370;40;20439;-80
2021/06/03 02:05:37;;;;;;;4.22;3.83;;;;;;;;;;1470761;40;20412;-80
2021/06/03 02:06:41;;;;;;;5.28;4.20;;;;;;;;;;1466996;40;20491;-81
2021/06/03 02:07:42;;;;;;;5.97;4.35;;;;;;;;;;1469305;40;20483;-82
2021/06/03 02:08:44;;;;;;;5.13;4.43;;;;;;;;;;1470937;40;20488;-84
2021/06/03 02:09:46;;;;;;;4.22;3.92;;;;;;;;;;1466306;40;20531;-83
2021/06/03 02:10:50;;;;;;;4.50;4.10;;;;;;;;;;1466318;40;20475;-82
2021/06/03 02:11:51;;;;;;;8.05;4.47;;;;;;;;;;1468935;40;20455;-86
2021/06/03 02:13:06;;;;;;;4.63;4.22;;;;;;;;;;1462560;40;21229;-84
2021/06/03 02:14:18;;;;;;;4.88;4.43;;;;;;;;;;1467975;40;20883;-84
2021/06/03 02:15:23;;;;;;;5.70;5.20;;;;;;;;;;1463441;40;20428;-86
2021/06/03 02:16:29;;;;;;;7.22;4.68;;;;;;;;;;1458758;40;21019;-84
2021/06/03 02:17:39;;;;;;;6.53;4.83;;;;;;;;;;1458576;40;20390;-83
2021/06/03 02:18:48;;;;;;;6.32;5.40;;;;;;;;;;1458698;40;20391;-84
2021/06/03 02:20:14;;;;;;;6.55;5.25;;;;;;;;;;1462401;40;20513;-82
2021/06/03 02:21:18;;;;;;;6.03;5.43;;;;;;;;;;1460381;40;20471;-84
2021/06/03 02:22:21;;;;;;;8.70;5.88;;;;;;;;;;1465398;40;20496;-83
2021/06/03 02:23:26;;;;;;;6.55;5.65;;;;;;;;;;1464793;40;20472;-83
2021/06/03 02:24:27;;;;;;;7.63;5.32;;;;;;;;;;1464225;40;20507;-84
2021/06/03 02:25:30;;;;;;;6.93;5.47;;;;;;;;;;1462652;40;20424;-84
2021/06/03 02:26:37;;;;;;;7.43;5.53;;;;;;;;;;1468132;40;20459;-82
2021/06/03 02:27:38;;;;;;;5.43;5.03;;;;;;;;;;1472202;40;20463;-83
2021/06/03 02:28:41;;;;;;;7.65;5.80;;;;;;;;;;1468657;40;20420;-82
2021/06/03 02:29:44;;;;;;;6.63;5.22;;;;;;;;;;1464932;40;20442;-84
2021/06/03 02:30:46;;;;;;;7.20;5.95;;;;;;;;;;1462764;40;20476;-84
2021/06/03 02:31:48;;;;;;;7.25;6.15;;;;;;;;;;1463689;40;20445;-82
2021/06/03 02:32:51;;;;;;;7.32;6.63;;;;;;;;;;1461616;40;20935;-81
2021/06/03 02:33:54;;;;;;;9.32;6.10;;;;;;;;;;1462695;40;20799;-82
2021/06/03 02:34:56;;;;;;;6.78;6.18;;;;;;;;;;1464697;40;20503;-80
2021/06/03 02:35:58;;;;;;;7.43;6.77;;;;;;;;;;1460259;40;20434;-81
2021/06/03 02:37:00;;;;;;;6.68;6.07;;;;;;;;;;1464720;40;20464;-81
2021/06/03 02:38:02;;;;;;;8.55;6.50;;;;;;;;;;1468176;40;20529;-79
2021/06/03 02:39:07;;;;;;;6.40;5.90;;;;;;;;;;1468993;40;20407;-79
2021/06/03 02:40:12;;;;;;;8.07;7.20;;;;;;;;;;1464568;40;20425;-81
2021/06/03 02:41:14;;;;;;;8.15;7.03;;;;;;;;;;1464684;40;20475;-81
2021/06/03 02:42:16;;;;;;;7.40;6.78;;;;;;;;;;1468122;40;20482;-82
2021/06/03 02:43:18;;;;;;;7.43;6.78;;;;;;;;;;1466314;40;20518;-82
2021/06/03 02:44:20;;;;;;;8.00;6.95;;;;;;;;;;1461076;40;20437;-81
2021/06/03 02:45:25;;;;;;;8.67;7.30;;;;;;;;;;1460086;40;20472;-81
2021/06/03 02:46:26;;;;;;;7.03;6.43;;;;;;;;;;1466348;40;20898;-82
2021/06/03 02:47:28;;;;;;;7.47;6.72;;;;;;;;;;1457817;40;20486;-83
2021/06/03 02:48:30;;;;;;;7.40;6.70;;;;;;;;;;1457857;40;20431;-83
2021/06/03 02:49:32;;;;;;;7.93;7.13;;;;;;;;;;1462274;40;20452;-82
2021/06/03 02:50:34;;;;;;;9.90;7.32;;;;;;;;;;1463422;40;20419;-83
2021/06/03 02:51:36;;;;;;;9.23;7.50;;;;;;;;;;1461624;40;20484;-83
2021/06/03 02:52:38;;;;;;;8.30;7.50;;;;;;;;;;1461703;40;20413;-83
2021/06/03 02:53:40;;;;;;;8.13;7.40;;;;;;;;;;1465741;40;20436;-83
2021/06/03 02:54:43;;;;;;;8.38;7.50;;;;;;;;;;1457654;40;20527;-83
2021/06/03 02:55:45;;;;;;;7.50;6.63;;;;;;;;;;1458017;40;20454;-82
2021/06/03 02:56:47;;;;;;;7.70;7.05;;;;;;;;;;1461717;40;20536;-82
2021/06/03 02:57:50;;;;;;;7.82;6.78;;;;;;;;;;1465566;40;20427;-83
2021/06/03 02:58:52;;;;;;;8.23;7.28;;;;;;;;;;1470387;40;20404;-82
2021/06/03 02:59:53;;;;;;;9.23;7.47;;;;;;;;;;1466844;40;20407;-82
2021/06/03 03:00:55;;;;;;;8.15;6.85;;;;;;;;;;1462088;40;20460;-80
2021/06/03 03:01:57;;;;;;;8.27;7.40;;;;;;;;;;1455990;40;20427;-83
2021/06/03 03:03:00;;;;;;;7.82;7.05;;;;;;;;;;1457383;40;20474;-83
2021/06/03 03:04:01;;;;;;;8.33;7.50;;;;;;;;;;1460992;40;20415;-79
2021/06/03 03:05:05;;;;;;;8.23;7.53;;;;;;;;;;1462013;40;20758;-80
2021/06/03 03:06:06;;;;;;;8.40;7.65;;;;;;;;;;1461747;40;20491;-83
2021/06/03 03:07:08;;;;;;;7.88;7.13;;;;;;;;;;1461458;40;20428;-83
2021/06/03 03:08:10;;;;;;;8.52;7.57;;;;;;;;;;1453521;40;20541;-82
2021/06/03 03:09:12;;;;;;;7.80;7.18;;;;;;;;;;1457824;40;20538;-82
2021/06/03 03:10:23;;;;;;;8.90;7.50;;;;;;;;;;1466090;40;20459;-82
2021/06/03 03:11:26;;;;;;;10.98;7.47;;;;;;;;;;1462508;40;20488;-83
2021/06/03 03:12:28;;;;;;;9.13;7.55;;;;;;;;;;1463521;40;20401;-84
2021/06/03 03:13:30;;;;;;;8.07;7.30;;;;;;;;;;1462553;40;20405;-81
2021/06/03 03:14:31;;;;;;;8.85;7.95;;;;;;;;;;1457796;40;20414;-81
2021/06/03 03:15:35;;;;;;;8.07;7.28;;;;;;;;;;1462851;40;20754;-82
2021/06/03 03:16:36;;;;;;;8.20;7.40;;;;;;;;;;1469946;40;20424;-82
2021/06/03 03:17:38;;;;;;;8.53;7.83;;;;;;;;;;1462207;40;20539;-83
2021/06/03 03:18:40;;;;;;;8.77;7.97;;;;;;;;;;1457634;40;20817;-82
2021/06/03 03:19:41;;;;;;;8.10;7.30;;;;;;;;;;1457544;40;20801;-84
2021/06/03 03:20:44;;;;;;;9.35;8.45;;;;;;;;;;1461228;40;20560;-82
2021/06/03 03:21:45;;;;;;;8.75;7.78;;;;;;;;;;1461584;40;20468;-82
2021/06/03 03:22:47;;;;;;;8.82;7.68;;;;;;;;;;1457508;40;20518;-84
2021/06/03 03:23:49;;;;;;;8.25;7.60;;;;;;;;;;1461573;40;20449;-82
2021/06/03 03:24:51;;;;;;;9.45;8.18;;;;;;;;;;1466271;40;20482;-82
2021/06/03 03:25:52;;;;;;;11.23;8.55;;;;;;;;;;1466345;40;20399;-82
2021/06/03 03:26:54;;;;;;;9.80;8.40;;;;;;;;;;1466001;40;20505;-82
2021/06/03 03:27:56;;;;;;;9.90;7.47;;;;;;;;;;1460477;40;20424;-84
2021/06/03 03:28:58;;;;;;;8.57;7.72;;;;;;;;;;1461842;40;20537;-81
2021/06/03 03:30:00;;;;;;;8.27;7.57;;;;;;;;;;1464844;40;20438;-81
2021/06/03 03:31:02;;;;;;;8.43;7.72;;;;;;;;;;1466335;40;20508;-80
2021/06/03 03:32:04;;;;;;;10.45;7.80;;;;;;;;;;1465348;40;20801;-81
2021/06/03 03:33:06;;;;;;;8.85;8.05;;;;;;;;;;1458560;40;20423;-79
2021/06/03 03:34:07;;;;;;;10.00;7.72;;;;;;;;;;1460878;40;20406;-81
2021/06/03 03:35:09;;;;;;;9.00;8.10;;;;;;;;;;1466221;40;20491;-81
2021/06/03 03:36:11;;;;;;;8.70;7.85;;;;;;;;;;1469537;40;20440;-83
2021/06/03 03:37:12;;;;;;;9.73;8.73;;;;;;;;;;1467084;40;20421;-81
2021/06/03 03:38:15;;;;;;;9.30;8.40;;;;;;;;;;1463269;40;20530;-80
2021/06/03 03:39:17;;;;;;;8.55;7.63;;;;;;;;;;1463757;40;20478;-78
2021/06/03 03:40:22;;;;;;;8.23;7.53;;;;;;;;;;1471072;40;20447;-81
2021/06/03 03:41:24;;;;;;;8.93;8.02;;;;;;;;;;1471900;40;20485;-83
2021/06/03 03:42:26;;;;;;;10.30;8.13;;;;;;;;;;1471524;40;20427;-80
2021/06/03 03:43:27;;;;;;;8.32;7.53;;;;;;;;;;1463225;40;20707;-84
2021/06/03 03:44:29;;;;;;;7.90;7.10;;;;;;;;;;1456496;40;20518;-83
2021/06/03 03:45:32;;;;;;;8.02;7.22;;;;;;;;;;1459744;40;20509;-83
2021/06/03 03:46:34;;;;;;;9.13;7.28;;;;;;;;;;1462386;40;20408;-83
2021/06/03 03:47:36;;;;;;;8.52;7.82;;;;;;;;;;1461661;40;20409;-82
2021/06/03 03:48:38;;;;;;;7.95;7.18;;;;;;;;;;1457716;40;20407;-82
2021/06/03 03:49:40;;;;;;;10.88;8.05;;;;;;;;;;1461576;40;20409;-83
2021/06/03 03:50:42;;;;;;;10.63;7.82;;;;;;;;;;1465612;40;20432;-82
2021/06/03 03:51:43;;;;;;;9.43;8.02;;;;;;;;;;1457064;40;20427;-83
2021/06/03 03:52:45;;;;;;;9.02;8.13;;;;;;;;;;1457230;40;20451;-82
2021/06/03 03:53:47;;;;;;;8.30;7.38;;;;;;;;;;1461521;40;20433;-85
2021/06/03 03:54:48;;;;;;;12.18;7.78;;;;;;;;;;1457372;40;20536;-85
2021/06/03 03:55:50;;;;;;;8.73;7.85;;;;;;;;;;1457529;40;20437;-84
2021/06/03 03:56:52;;;;;;;8.35;7.55;;;;;;;;;;1465992;40;20455;-83
2021/06/03 03:57:53;;;;;;;8.68;7.78;;;;;;;;;;1466174;40;20989;-84
2021/06/03 03:58:58;;;;;;;7.68;7.07;;;;;;;;;;1461783;40;20421;-82
2021/06/03 03:59:59;;;;;;;8.13;7.32;;;;;;;;;;1455369;40;20989;-83
2021/06/03 04:01:01;;;;;;;9.52;8.60;;;;;;;;;;1457771;40;20511;-80
2021/06/03 04:02:04;;;;;;;9.90;8.25;;;;;;;;;;1454072;40;20539;-80
2021/06/03 04:03:06;;;;;;;8.60;7.72;;;;;;;;;;1457703;40;20453;-80
2021/06/03 04:04:08;;;;;;;8.15;7.35;;;;;;;;;;1457457;40;20447;-81
2021/06/03 04:05:10;;;;;;;8.43;7.63;;;;;;;;;;1457851;40;20427;-83
2021/06/03 04:06:11;;;;;;;8.90;8.10;;;;;;;;;;1457725;40;20505;-84
2021/06/03 04:07:13;;;;;;;8.90;7.43;;;;;;;;;;1449705;40;20768;-84
2021/06/03 04:08:15;;;;;;;8.27;7.47;;;;;;;;;;1453268;40;20420;-85
2021/06/03 04:09:17;;;;;;;9.40;7.32;;;;;;;;;;1462163;40;20393;-85
2021/06/03 04:10:21;;;;;;;8.45;7.72;;;;;;;;;;1460731;40;20448;-84
2021/06/03 04:11:25;;;;;;;10.15;7.63;;;;;;;;;;1461990;40;20401;-84
2021/06/03 04:12:26;;;;;;;8.80;7.65;;;;;;;;;;1465502;40;20434;-83
2021/06/03 04:13:28;;;;;;;9.57;7.90;;;;;;;;;;1465880;40;20407;-82
2021/06/03 04:14:30;;;;;;;8.60;7.70;;;;;;;;;;1468250;40;20520;-82
2021/06/03 04:15:31;;;;;;;8.90;7.78;;;;;;;;;;1459519;40;20657;-82
2021/06/03 04:16:33;;;;;;;8.93;7.57;;;;;;;;;;1456706;40;20527;-82
2021/06/03 04:17:36;;;;;;;8.85;8.00;;;;;;;;;;1456902;40;20462;-84
2021/06/03 04:18:38;;;;;;;8.45;7.70;;;;;;;;;;1461594;40;20425;-85
2021/06/03 04:19:39;;;;;;;8.57;7.80;;;;;;;;;;1461507;40;20412;-83
2021/06/03 04:20:41;;;;;;;10.15;8.45;;;;;;;;;;1465844;40;20680;-84
2021/06/03 04:21:43;;;;;;;10.02;8.30;;;;;;;;;;1462209;40;20421;-84
2021/06/03 04:22:51;;;;;;;12.10;8.32;;;;;;;;;;1462424;40;20425;-83
2021/06/03 04:23:52;;;;;;;10.10;7.85;;;;;;;;;;1466809;40;20391;-84
2021/06/03 04:24:54;;;;;;;10.40;8.20;;;;;;;;;;1466526;40;20513;-85
2021/06/03 04:25:55;;;;;;;8.13;7.43;;;;;;;;;;1466801;40;20532;-81
2021/06/03 04:26:57;;;;;;;10.50;7.60;;;;;;;;;;1461807;40;20417;-83
2021/06/03 04:28:00;;;;;;;7.97;7.22;;;;;;;;;;1458112;40;20423;-84
2021/06/03 04:29:02;;;;;;;9.15;7.60;;;;;;;;;;1462224;40;20413;-83
2021/06/03 04:30:10;;;;;;;15.30;8.27;;;;;;;;;;1463658;40;20445;-82
2021/06/03 04:31:12;;;;;;;9.95;7.93;;;;;;;;;;1458128;40;20443;-82
2021/06/03 04:32:13;;;;;;;8.73;7.47;;;;;;;;;;1457044;40;20442;-83
2021/06/03 04:33:20;;;;;;;9.52;7.70;;;;;;;;;;1458273;40;20411;-82
2021/06/03 04:34:24;;;;;;;8.68;7.50;;;;;;;;;;1462571;40;20564;-82
2021/06/03 04:35:27;;;;;;;8.98;8.18;;;;;;;;;;1461611;40;20456;-84
2021/06/03 04:36:28;;;;;;;8.40;7.60;;;;;;;;;;1459362;40;20460;-82
2021/06/03 04:37:30;;;;;;;8.15;7.38;;;;;;;;;;1461461;40;20416;-83
2021/06/03 04:38:32;;;;;;;8.93;7.80;;;;;;;;;;1462067;40;20469;-83
2021/06/03 04:39:33;;;;;;;9.18;7.97;;;;;;;;;;1466564;40;20614;-82
2021/06/03 04:40:35;;;;;;;8.75;7.93;;;;;;;;;;1466417;40;20467;-85
2021/06/03 04:41:37;;;;;;;10.48;8.18;;;;;;;;;;1466544;40;20422;-82
2021/06/03 04:42:38;;;;;;;9.00;8.13;;;;;;;;;;1465487;40;20513;-85
2021/06/03 04:43:44;;;;;;;10.10;8.05;;;;;;;;;;1462080;40;20397;-83
2021/06/03 04:44:46;;;;;;;8.43;7.63;;;;;;;;;;1461105;40;20512;-82
2021/06/03 04:45:48;;;;;;;10.23;8.07;;;;;;;;;;1465822;40;20459;-82
2021/06/03 04:46:50;;;;;;;9.57;8.00;;;;;;;;;;1467217;40;20457;-83
2021/06/03 04:47:52;;;;;;;9.20;8.27;;;;;;;;;;1470399;40;20402;-82
2021/06/03 04:48:59;;;;;;;9.57;8.65;;;;;;;;;;1462156;40;20404;-82
2021/06/03 04:50:02;;;;;;;9.68;8.93;;;;;;;;;;1459039;40;20749;-81
2021/06/03 04:51:04;;;;;;;9.32;8.52;;;;;;;;;;1459414;40;20430;-81
2021/06/03 04:52:25;;;;;;;8.95;7.97;;;;;;;;;;1462180;40;21071;-78
2021/06/03 04:53:27;;;;;;;9.00;8.10;;;;;;;;;;1467399;40;20415;-83
2021/06/03 04:54:28;;;;;;;11.68;8.85;;;;;;;;;;1466935;40;21230;-84
2021/06/03 04:55:30;;;;;;;9.57;8.68;;;;;;;;;;1463296;40;20411;-83
2021/06/03 04:56:34;;;;;;;9.55;8.68;;;;;;;;;;1465802;40;20415;-82
2021/06/03 04:57:36;;;;;;;11.13;8.90;;;;;;;;;;1466158;40;20439;-83
2021/06/03 04:58:38;;;;;;;8.88;8.18;;;;;;;;;;1465965;40;20411;-84
2021/06/03 04:59:39;;;;;;;8.75;7.95;;;;;;;;;;1468689;40;20771;-83
2021/06/03 05:00:42;;;;;;;9.82;8.77;;;;;;;;;;1465414;40;20395;-83
2021/06/03 05:01:44;;;;;;;9.23;8.50;;;;;;;;;;1460508;40;20467;-82
2021/06/03 05:02:46;;;;;;;8.63;7.88;;;;;;;;;;1458132;40;20445;-83
2021/06/03 05:03:48;;;;;;;9.48;8.30;;;;;;;;;;1459177;40;20538;-83
2021/06/03 05:04:51;;;;;;;8.98;8.15;;;;;;;;;;1463807;40;20412;-81
2021/06/03 05:05:54;;;;;;;11.17;10.17;;;;;;;;;;1464596;40;20674;-82
2021/06/03 05:06:56;;;;;;;9.65;8.68;;;;;;;;;;1461783;40;20429;-82
2021/06/03 05:07:57;;;;;;;10.57;8.98;;;;;;;;;;1456844;40;20481;-83
2021/06/03 05:08:59;;;;;;;9.57;8.60;;;;;;;;;;1457988;40;20459;-84
2021/06/03 05:10:01;;;;;;;9.70;8.80;;;;;;;;;;1466346;40;20431;-83
2021/06/03 05:11:03;;;;;;;9.43;8.45;;;;;;;;;;1462016;40;20413;-82
2021/06/03 05:12:05;;;;;;;9.27;7.95;;;;;;;;;;1457926;40;20509;-82
2021/06/03 05:13:07;;;;;;;9.70;8.18;;;;;;;;;;1457917;40;20414;-82
2021/06/03 05:14:09;;;;;;;8.65;7.88;;;;;;;;;;1462314;40;20418;-80
2021/06/03 05:15:12;;;;;;;9.38;8.50;;;;;;;;;;1461207;40;20466;-82
2021/06/03 05:16:13;;;;;;;8.50;7.70;;;;;;;;;;1466455;40;20395;-82
2021/06/03 05:17:15;;;;;;;8.45;7.57;;;;;;;;;;1466554;40;20399;-83
2021/06/03 05:18:17;;;;;;;9.05;8.10;;;;;;;;;;1461865;40;20505;-82
2021/06/03 05:19:18;;;;;;;10.40;7.75;;;;;;;;;;1462185;40;20413;-82
2021/06/03 05:20:23;;;;;;;9.43;7.55;;;;;;;;;;1464719;40;20951;-81
2021/06/03 05:21:24;;;;;;;10.27;8.38;;;;;;;;;;1466346;40;20431;-82
2021/06/03 05:22:26;;;;;;;10.45;8.38;;;;;;;;;;1461633;40;20421;-82
2021/06/03 05:23:28;;;;;;;9.13;8.23;;;;;;;;;;1461852;40;20850;-83
2021/06/03 05:24:29;;;;;;;10.18;8.23;;;;;;;;;;1462045;40;21359;-82
2021/06/03 05:25:31;;;;;;;11.25;8.25;;;;;;;;;;1458138;40;20481;-85
2021/06/03 05:26:33;;;;;;;12.30;7.95;;;;;;;;;;1457905;40;20425;-82
2021/06/03 05:27:35;;;;;;;8.30;7.50;;;;;;;;;;1458066;40;20403;-82
2021/06/03 05:28:36;;;;;;;9.75;8.85;;;;;;;;;;1461106;40;20845;-85
2021/06/03 05:29:38;;;;;;;9.13;7.97;;;;;;;;;;1465760;40;20497;-83
2021/06/03 05:30:39;;;;;;;10.82;8.48;;;;;;;;;;1456335;40;20399;-82
2021/06/03 05:31:45;;;;;;;12.27;8.27;;;;;;;;;;1456709;40;22029;-82
2021/06/03 05:32:47;;;;;;;10.02;8.95;;;;;;;;;;1463165;40;20458;-81
2021/06/03 05:33:48;;;;;;;13.02;8.75;;;;;;;;;;1465118;40;20805;-82
2021/06/03 05:34:50;;;;;;;9.98;9.05;;;;;;;;;;1462308;40;20437;-83
2021/06/03 05:35:51;;;;;;;10.63;8.02;;;;;;;;;;1462104;40;20743;-82
2021/06/03 05:36:53;;;;;;;10.95;8.63;;;;;;;;;;1462047;40;20425;-82
2021/06/03 05:37:55;;;;;;;9.77;8.80;;;;;;;;;;1457721;40;20418;-86
2021/06/03 05:38:57;;;;;;;10.23;9.20;;;;;;;;;;1462652;40;20405;-82
2021/06/03 05:39:59;;;;;;;10.30;9.40;;;;;;;;;;1467033;40;20431;-83
2021/06/03 05:41:00;;;;;;;9.77;8.98;;;;;;;;;;1467906;40;20658;-84
2021/06/03 05:42:02;;;;;;;10.35;9.25;;;;;;;;;;1463326;40;20401;-83
2021/06/03 05:43:04;;;;;;;10.70;9.10;;;;;;;;;;1462366;40;20507;-85
2021/06/03 05:44:08;;;;;;;9.50;8.60;;;;;;;;;;1467359;40;20404;-83
2021/06/03 05:45:11;;;;;;;11.68;9.32;;;;;;;;;;1464552;40;20499;-81
2021/06/03 05:46:12;;;;;;;10.27;9.20;;;;;;;;;;1462418;40;20457;-83
2021/06/03 05:47:14;;;;;;;9.65;8.45;;;;;;;;;;1466127;40;20650;-82
2021/06/03 05:48:15;;;;;;;9.60;8.70;;;;;;;;;;1467587;40;20811;-83
2021/06/03 05:49:17;;;;;;;10.40;8.93;;;;;;;;;;1470541;40;20749;-82
2021/06/03 05:50:23;;;;;;;14.43;8.68;;;;;;;;;;1466004;40;20471;-83
2021/06/03 05:51:25;;;;;;;10.25;9.23;;;;;;;;;;1458344;40;20407;-85
2021/06/03 05:52:28;;;;;;;10.65;9.20;;;;;;;;;;1462182;40;20516;-83
2021/06/03 05:53:29;;;;;;;11.15;8.70;;;;;;;;;;1461724;40;21138;-82
2021/06/03 05:54:33;;;;;;;13.25;9.90;;;;;;;;;;1457767;40;20599;-83
2021/06/03 05:55:34;;;;;;;10.15;9.15;;;;;;;;;;1457863;40;20430;-83
2021/06/03 05:56:37;;;;;;;10.07;9.10;;;;;;;;;;1461686;40;20421;-83
2021/06/03 05:57:40;;;;;;;10.45;9.45;;;;;;;;;;1459424;40;20777;-83
2021/06/03 05:58:41;;;;;;;10.52;8.98;;;;;;;;;;1465694;40;20598;-85
2021/06/03 05:59:43;;;;;;;9.45;8.48;;;;;;;;;;1463501;40;20460;-85
2021/06/03 06:00:44;;;;;;;9.30;8.43;;;;;;;;;;1456693;40;20513;-82
2021/06/03 06:01:46;;;;;;;9.90;8.85;;;;;;;;;;1456257;40;20433;-84
2021/06/03 06:07:25;;;;;;;8.45;7.72;;;;;;;;;;1462050;40;20414;-83
2021/06/03 06:08:26;;;;;;;11.25;8.18;;;;;;;;;;1463761;40;20492;-84
2021/06/03 06:09:28;;;;;;;9.40;8.48;;;;;;;;;;1469893;40;20471;-83
2021/06/03 06:10:31;;;;;;;8.82;8.02;;;;;;;;;;1472167;40;20410;-82
2021/06/03 06:11:37;;;;;;;9.70;8.43;;;;;;;;;;1475170;40;20410;-82
2021/06/03 06:12:39;;;;;;;9.30;8.35;;;;;;;;;;1475263;40;20476;-80
2021/06/03 06:13:41;;;;;;;8.65;7.47;;;;;;;;;;1475906;40;20523;-83
2021/06/03 06:14:42;;;;;;;9.43;8.45;;;;;;;;;;1473197;40;20473;-81
2021/06/03 06:15:44;;;;;;;8.32;7.53;;;;;;;;;;1472128;40;20435;-84
2021/06/03 06:16:46;;;;;;;8.70;7.82;;;;;;;;;;1471375;40;20411;-85
2021/06/03 06:17:48;;;;;;;10.15;8.98;;;;;;;;;;1467622;40;20673;-86
2021/06/03 06:18:50;;;;;;;8.30;7.65;;;;;;;;;;1466287;40;20414;-86
2021/06/03 06:19:51;;;;;;;9.75;8.38;;;;;;;;;;1466023;40;20439;-86
2021/06/03 06:20:53;;;;;;;7.88;7.28;;;;;;;;;;1465292;40;20443;-85
2021/06/03 06:21:55;;;;;;;10.85;8.35;;;;;;;;;;1461968;40;20428;-86